createdAt,value
2022-09-20T00:00:09.000Z,11.87
2022-09-20T00:02:30.000Z,11.83
2022-09-20T00:04:56.000Z,11.6
2022-09-20T00:07:22.000Z,11.57
2022-09-20T00:09:47.000Z,11.28
2022-09-20T00:12:13.000Z,11.22
2022-09-20T00:14:40.000Z,10.83
2022-09-20T00:17:05.000Z,10.68
2022-09-20T00:19:32.000Z,10.68
2022-09-20T00:21:58.000Z,11.18
2022-09-20T00:24:23.000Z,10.73
2022-09-20T00:26:49.000Z,10.93
2022-09-20T00:29:15.000Z,10.05
2022-09-20T00:31:40.000Z,10.2
2022-09-20T00:34:06.000Z,10.73
2022-09-20T00:36:32.000Z,10.5
2022-09-20T00:38:59.000Z,10.97
2022-09-20T00:41:24.000Z,11.5
2022-09-20T00:43:51.000Z,11.05
2022-09-20T00:46:17.000Z,9.7
2022-09-20T00:48:41.000Z,9.7
2022-09-20T00:51:07.000Z,9.2
2022-09-20T00:53:33.000Z,8.48
2022-09-20T00:55:58.000Z,6.57
2022-09-20T00:58:24.000Z,5.8
2022-09-20T01:00:50.000Z,5.67
2022-09-20T01:03:16.000Z,5.08
2022-09-20T01:05:41.000Z,4.9
2022-09-20T01:08:07.000Z,5.13
2022-09-20T01:10:33.000Z,4.75
2022-09-20T01:12:59.000Z,5.05
2022-09-20T01:15:24.000Z,5
2022-09-20T01:17:50.000Z,5.5
2022-09-20T01:20:17.000Z,5.7
2022-09-20T01:22:42.000Z,4.9
2022-09-20T01:25:09.000Z,4.6
2022-09-20T01:27:34.000Z,3.6
2022-09-20T01:29:59.000Z,4.8
2022-09-20T01:32:25.000Z,4.92
2022-09-20T01:34:51.000Z,5.2
2022-09-20T01:37:17.000Z,5.3
2022-09-20T01:39:43.000Z,5.37
2022-09-20T01:42:09.000Z,4.63
2022-09-20T01:44:34.000Z,5.67
2022-09-20T01:47:00.000Z,5.45
2022-09-20T01:49:27.000Z,5.57
2022-09-20T01:51:52.000Z,5.67
2022-09-20T01:54:18.000Z,4.67
2022-09-20T01:56:43.000Z,4.67
2022-09-20T01:59:09.000Z,4.57
2022-09-20T02:01:34.000Z,3.53
2022-09-20T02:04:00.000Z,3.3
2022-09-20T02:06:26.000Z,3.67
2022-09-20T02:08:52.000Z,3.2
2022-09-20T02:11:19.000Z,3.25
2022-09-20T02:13:43.000Z,3.33
2022-09-20T02:16:09.000Z,3.3
2022-09-20T02:18:34.000Z,3.9
2022-09-20T02:21:00.000Z,3.5
2022-09-20T02:23:26.000Z,4.1
2022-09-20T02:25:51.000Z,5
2022-09-20T02:30:43.000Z,5.7
2022-09-20T02:33:11.000Z,4.7
2022-09-20T02:35:36.000Z,5.4
2022-09-20T02:38:01.000Z,5.22
2022-09-20T02:40:26.000Z,5.83
2022-09-20T02:42:53.000Z,5.9
2022-09-20T02:45:18.000Z,5.03
2022-09-20T02:47:44.000Z,5.3
2022-09-20T02:50:10.000Z,4.17
2022-09-20T02:52:37.000Z,4.3
2022-09-20T02:55:01.000Z,4.22
2022-09-20T02:57:27.000Z,4.87
2022-09-20T02:59:52.000Z,4.53
2022-09-20T03:02:18.000Z,4.8
2022-09-20T03:04:44.000Z,4.85
2022-09-20T03:07:10.000Z,4.6
2022-09-20T03:09:36.000Z,4.9
2022-09-20T03:12:03.000Z,5.4
2022-09-20T03:14:27.000Z,4.9
2022-09-20T03:16:55.000Z,4.7
2022-09-20T03:19:19.000Z,4.53
2022-09-20T03:21:45.000Z,4.42
2022-09-20T03:24:11.000Z,4.63
2022-09-20T03:26:37.000Z,4.3
2022-09-20T03:29:03.000Z,6.15
2022-09-20T03:31:29.000Z,7.5
2022-09-20T03:33:54.000Z,6.47
2022-09-20T03:36:20.000Z,6.83
2022-09-20T03:38:46.000Z,9.48
2022-09-20T03:41:12.000Z,6.47
2022-09-20T03:43:39.000Z,6.17
2022-09-20T03:46:04.000Z,5.83
2022-09-20T03:48:31.000Z,5.1
2022-09-20T03:50:55.000Z,6.03
2022-09-20T03:53:22.000Z,5.55
2022-09-20T03:55:46.000Z,5.72
2022-09-20T03:58:12.000Z,5.63
2022-09-20T04:00:43.000Z,5.17
2022-09-20T04:03:05.000Z,4.5
2022-09-20T04:05:42.000Z,5.53
2022-09-20T04:11:18.000Z,5.03
2022-09-20T04:13:35.000Z,6.3
2022-09-20T04:18:17.000Z,5.4
2022-09-20T04:20:42.000Z,5.67
2022-09-20T04:22:34.000Z,5.33
2022-09-20T04:24:57.000Z,5.3
2022-09-20T04:27:25.000Z,4.8
2022-09-20T04:29:50.000Z,4.43
2022-09-20T04:32:16.000Z,5.1
2022-09-20T04:34:42.000Z,4.6
2022-09-20T04:37:10.000Z,5
2022-09-20T04:39:35.000Z,5.87
2022-09-20T04:42:01.000Z,6
2022-09-20T04:44:28.000Z,5.87
2022-09-20T04:46:53.000Z,6.55
2022-09-20T04:49:22.000Z,6.33
2022-09-20T04:51:48.000Z,6.5
2022-09-20T04:54:13.000Z,7.2
2022-09-20T04:56:39.000Z,7.35
2022-09-20T04:59:06.000Z,7.1
2022-09-20T05:01:31.000Z,7.05
2022-09-20T05:03:57.000Z,7.33
2022-09-20T05:06:23.000Z,7.17
2022-09-20T05:08:49.000Z,7.47
2022-09-20T05:11:15.000Z,7.67
2022-09-20T05:13:41.000Z,7.27
2022-09-20T05:16:08.000Z,7.47
2022-09-20T05:18:33.000Z,7.55
2022-09-20T05:21:00.000Z,7.4
2022-09-20T05:23:27.000Z,7.6
2022-09-20T05:25:51.000Z,7.7
2022-09-20T05:28:17.000Z,7.9
2022-09-20T05:30:43.000Z,8
2022-09-20T05:33:12.000Z,7.95
2022-09-20T05:35:38.000Z,7.9
2022-09-20T05:38:06.000Z,7.4
2022-09-20T05:40:30.000Z,7.25
2022-09-20T05:42:56.000Z,7.75
2022-09-20T05:45:27.000Z,8
2022-09-20T05:47:48.000Z,8.2
2022-09-20T05:50:18.000Z,8.55
2022-09-20T05:52:39.000Z,8
2022-09-20T05:55:07.000Z,8.4
2022-09-20T05:57:31.000Z,8.08
2022-09-20T05:59:57.000Z,7.33
2022-09-20T06:04:48.000Z,8.18
2022-09-20T06:07:15.000Z,8.35
2022-09-20T06:09:40.000Z,8.47
2022-09-20T06:12:07.000Z,8.45
2022-09-20T06:14:33.000Z,8.98
2022-09-20T06:16:59.000Z,10.5
2022-09-20T06:19:23.000Z,10.65
2022-09-20T06:21:50.000Z,10.9
2022-09-20T06:24:17.000Z,11.7
2022-09-20T06:26:42.000Z,11.4
2022-09-20T06:29:08.000Z,11.53
2022-09-20T06:31:34.000Z,11.63
2022-09-20T06:34:00.000Z,12.58
2022-09-20T06:36:26.000Z,13.1
2022-09-20T06:38:52.000Z,12.82
2022-09-20T06:41:19.000Z,12.25
2022-09-20T06:43:43.000Z,13.28
2022-09-20T06:46:10.000Z,12.75
2022-09-20T06:48:36.000Z,14.58
2022-09-20T06:53:33.000Z,15.2
2022-09-20T06:55:58.000Z,15.08
2022-09-20T06:58:24.000Z,15.5
2022-09-20T07:00:50.000Z,16.53
2022-09-20T07:03:21.000Z,16.93
2022-09-20T07:05:41.000Z,15.88
2022-09-20T07:08:07.000Z,16.17
2022-09-20T07:10:33.000Z,17.63
2022-09-20T07:12:59.000Z,18.23
2022-09-20T07:15:26.000Z,16.87
2022-09-20T07:17:50.000Z,16.9
2022-09-20T07:20:17.000Z,18.6
2022-09-20T07:22:43.000Z,17.17
2022-09-20T07:25:08.000Z,18.32
2022-09-20T07:27:33.000Z,17.6
2022-09-20T07:30:04.000Z,17.93
2022-09-20T07:32:29.000Z,18.97
2022-09-20T07:34:54.000Z,18.5
2022-09-20T07:37:20.000Z,20.8
2022-09-20T07:39:46.000Z,19.07
2022-09-20T07:42:12.000Z,20.3
2022-09-20T07:44:38.000Z,20.15
2022-09-20T07:47:04.000Z,19.45
2022-09-20T07:49:30.000Z,19.25
2022-09-20T07:51:56.000Z,20.23
2022-09-20T07:54:23.000Z,19.07
2022-09-20T07:56:49.000Z,18.7
2022-09-20T07:59:14.000Z,17.55
2022-09-20T08:01:41.000Z,14.8
2022-09-20T08:04:07.000Z,13.07
2022-09-20T08:06:31.000Z,12.4
2022-09-20T08:08:57.000Z,11.68
2022-09-20T08:11:24.000Z,10.3
2022-09-20T08:13:49.000Z,10.03
2022-09-20T08:16:15.000Z,8.9
2022-09-20T08:18:41.000Z,8.3
2022-09-20T08:21:13.000Z,8.33
2022-09-20T08:23:33.000Z,7.42
2022-09-20T08:25:59.000Z,6.8
2022-09-20T08:28:30.000Z,8.43
2022-09-20T08:30:51.000Z,9.43
2022-09-20T08:35:46.000Z,8.28
2022-09-20T08:40:37.000Z,7.7
2022-09-20T08:43:04.000Z,7.03
2022-09-20T08:45:33.000Z,7.53
2022-09-20T08:47:54.000Z,8.53
2022-09-20T08:50:21.000Z,7.65
2022-09-20T08:52:46.000Z,8.1
2022-09-20T08:55:12.000Z,7.75
2022-09-20T08:57:38.000Z,6.65
2022-09-20T09:00:08.000Z,6.87
2022-09-20T09:02:30.000Z,7.53
2022-09-20T09:04:58.000Z,8
2022-09-20T09:07:24.000Z,9
2022-09-20T09:09:49.000Z,8.97
2022-09-20T09:12:16.000Z,10.08
2022-09-20T09:14:41.000Z,9.73
2022-09-20T09:17:07.000Z,9.88
2022-09-20T09:19:33.000Z,10.73
2022-09-20T09:21:59.000Z,11.45
2022-09-20T09:24:26.000Z,11.6
2022-09-20T09:26:52.000Z,12.2
2022-09-20T09:29:19.000Z,12.78
2022-09-20T09:31:46.000Z,12.7
2022-09-20T09:34:13.000Z,13.27
2022-09-20T09:36:39.000Z,13.73
2022-09-20T09:39:03.000Z,13.5
2022-09-20T09:41:29.000Z,14.2
2022-09-20T09:43:56.000Z,14.5
2022-09-20T09:46:23.000Z,15.3
2022-09-20T09:48:47.000Z,17.03
2022-09-20T09:51:13.000Z,16.53
2022-09-20T09:53:47.000Z,16.73
2022-09-20T09:56:05.000Z,15.25
2022-09-20T09:58:31.000Z,17.87
2022-09-20T10:00:58.000Z,18.25
2022-09-20T10:03:23.000Z,18.5
2022-09-20T10:05:50.000Z,18.27
2022-09-20T10:08:16.000Z,18.85
2022-09-20T10:10:42.000Z,18.7
2022-09-20T10:13:09.000Z,19.67
2022-09-20T10:15:33.000Z,18.62
2022-09-20T10:17:59.000Z,18.63
2022-09-20T10:20:25.000Z,19.07
2022-09-20T10:22:52.000Z,18.73
2022-09-20T10:25:22.000Z,18.27
2022-09-20T10:27:47.000Z,18.87
2022-09-20T10:32:44.000Z,19.25
2022-09-20T10:35:10.000Z,19.7
2022-09-20T10:37:38.000Z,19.85
2022-09-20T10:40:00.000Z,20.2
2022-09-20T10:42:27.000Z,20.5
2022-09-20T10:44:52.000Z,20.65
2022-09-20T10:47:18.000Z,21.23
2022-09-20T10:49:47.000Z,20.77
2022-09-20T10:52:10.000Z,21.67
2022-09-20T10:54:38.000Z,21.62
2022-09-20T10:57:09.000Z,20.9
2022-09-20T10:59:35.000Z,20.45
2022-09-20T11:02:03.000Z,23
2022-09-20T11:04:27.000Z,22
2022-09-20T11:06:53.000Z,19.17
2022-09-20T11:09:23.000Z,18.83
2022-09-20T11:11:50.000Z,19.07
2022-09-20T11:14:15.000Z,19.75
2022-09-20T11:16:41.000Z,19.4
2022-09-20T11:19:06.000Z,18.87
2022-09-20T11:21:34.000Z,19.37
2022-09-20T11:23:59.000Z,19.17
2022-09-20T11:26:26.000Z,19.7
2022-09-20T11:28:51.000Z,19.9
2022-09-20T11:31:16.000Z,21.7
2022-09-20T11:33:43.000Z,19.77
2022-09-20T11:36:08.000Z,19.75
2022-09-20T11:38:36.000Z,19.77
2022-09-20T11:43:34.000Z,21.93
2022-09-20T11:46:01.000Z,20.88
2022-09-20T11:48:27.000Z,20.7
2022-09-20T11:50:55.000Z,20.08
2022-09-20T11:53:20.000Z,19.8
2022-09-20T11:55:46.000Z,20.32
2022-09-20T11:58:12.000Z,20.35
2022-09-20T12:00:47.000Z,20.8
2022-09-20T12:03:04.000Z,21.5
2022-09-20T12:05:33.000Z,21.15
2022-09-20T12:07:59.000Z,22.6
2022-09-20T12:10:25.000Z,21.4
2022-09-20T12:12:53.000Z,20.97
2022-09-20T12:15:25.000Z,21.23
2022-09-20T12:17:45.000Z,21.3
2022-09-20T12:20:12.000Z,21.62
2022-09-20T12:22:43.000Z,21.7
2022-09-20T12:25:04.000Z,21.05
2022-09-20T12:27:31.000Z,20.37
2022-09-20T12:29:55.000Z,21.05
2022-09-20T12:32:22.000Z,19.98
2022-09-20T12:34:49.000Z,20.85
2022-09-20T12:37:14.000Z,23.35
2022-09-20T12:39:42.000Z,21.93
2022-09-20T12:42:20.000Z,21.33
2022-09-20T12:44:34.000Z,22.4
2022-09-20T12:47:00.000Z,21.55
2022-09-20T12:49:31.000Z,21.77
2022-09-20T12:51:55.000Z,21.23
2022-09-20T12:54:21.000Z,21.1
2022-09-20T12:56:49.000Z,22.2
2022-09-20T12:59:18.000Z,20.43
2022-09-20T13:01:45.000Z,20.97
2022-09-20T13:04:14.000Z,20.87
2022-09-20T13:06:38.000Z,21.95
2022-09-20T13:09:06.000Z,22.52
2022-09-20T13:11:32.000Z,22.5
2022-09-20T13:13:56.000Z,22.52
2022-09-20T13:16:23.000Z,23.05
2022-09-20T13:18:49.000Z,22.1
2022-09-20T13:21:15.000Z,21.5
2022-09-20T13:23:46.000Z,21.07
2022-09-20T13:26:14.000Z,20.95
2022-09-20T13:28:37.000Z,21.05
2022-09-20T13:31:08.000Z,21.68
2022-09-20T13:33:34.000Z,22.7
2022-09-20T13:36:01.000Z,22.95
2022-09-20T13:38:27.000Z,23.07
2022-09-20T13:40:54.000Z,24.1
2022-09-20T13:43:20.000Z,23.33
2022-09-20T13:45:47.000Z,22.7
2022-09-20T13:48:13.000Z,22.52
2022-09-20T13:50:38.000Z,24.2
2022-09-20T13:53:04.000Z,24.75
2022-09-20T13:55:41.000Z,29.55
2022-09-20T13:58:00.000Z,26
2022-09-20T14:00:31.000Z,25.82
2022-09-20T14:02:53.000Z,24.9
2022-09-20T14:05:19.000Z,25.4
2022-09-20T14:07:47.000Z,26.05
2022-09-20T14:10:16.000Z,26.8
2022-09-20T14:12:40.000Z,25.85
2022-09-20T14:17:39.000Z,27.58
2022-09-20T14:19:59.000Z,26.95
2022-09-20T14:22:26.000Z,26.15
2022-09-20T14:24:56.000Z,28.15
2022-09-20T14:27:21.000Z,28.67
2022-09-20T14:32:13.000Z,27.13
2022-09-20T14:34:40.000Z,29.57
2022-09-20T14:37:05.000Z,29.23
2022-09-20T14:39:31.000Z,28.9
2022-09-20T14:41:58.000Z,30.32
2022-09-20T14:44:24.000Z,30.37
2022-09-20T14:46:51.000Z,29.57
2022-09-20T14:49:17.000Z,30.1
2022-09-20T14:51:44.000Z,29.82
2022-09-20T14:54:09.000Z,28.93
2022-09-20T14:56:34.000Z,28.8
2022-09-20T14:58:59.000Z,30.48
2022-09-20T15:01:26.000Z,29.98
2022-09-20T15:03:54.000Z,29
2022-09-20T15:06:20.000Z,30.75
2022-09-20T15:08:46.000Z,29.32
2022-09-20T15:11:11.000Z,30.4
2022-09-20T15:13:38.000Z,29.73
2022-09-20T15:16:05.000Z,28.53
2022-09-20T15:18:29.000Z,29.2
2022-09-20T15:20:55.000Z,29.75
2022-09-20T15:23:21.000Z,30.12
2022-09-20T15:25:48.000Z,32.2
2022-09-20T15:28:13.000Z,32.53
2022-09-20T15:30:40.000Z,33.7
2022-09-20T15:33:05.000Z,33
2022-09-20T15:35:31.000Z,34.53
2022-09-20T15:37:57.000Z,35.08
2022-09-20T15:40:26.000Z,35.63
2022-09-20T15:42:50.000Z,35.35
2022-09-20T15:45:17.000Z,35.67
2022-09-20T15:47:44.000Z,37.25
2022-09-20T15:50:09.000Z,38.03
2022-09-20T15:52:34.000Z,37.23
2022-09-20T15:55:00.000Z,38.63
2022-09-20T15:57:27.000Z,40.33
2022-09-20T15:59:51.000Z,38.77
2022-09-20T16:02:18.000Z,40.47
2022-09-20T16:04:44.000Z,40
2022-09-20T16:07:09.000Z,39.53
2022-09-20T16:09:35.000Z,39.5
2022-09-20T16:12:17.000Z,38.53
2022-09-20T16:14:28.000Z,38.15
2022-09-20T16:16:53.000Z,38.3
2022-09-20T16:19:19.000Z,39.43
2022-09-20T16:21:45.000Z,39.3
2022-09-20T16:24:11.000Z,39.1
2022-09-20T16:26:43.000Z,40.75
2022-09-20T16:29:04.000Z,38.8
2022-09-20T16:31:29.000Z,38.28
2022-09-20T16:33:55.000Z,38.88
2022-09-20T16:36:20.000Z,40.2
2022-09-20T16:38:47.000Z,39.35
2022-09-20T16:41:13.000Z,37.73
2022-09-20T16:43:38.000Z,39.47
2022-09-20T16:46:06.000Z,38.42
2022-09-20T16:48:29.000Z,38.63
2022-09-20T16:50:57.000Z,37.8
2022-09-20T16:53:23.000Z,38.08
2022-09-20T16:55:47.000Z,37.23
2022-09-20T16:58:13.000Z,35.63
2022-09-20T17:01:16.000Z,36.07
2022-09-20T17:03:45.000Z,34.95
2022-09-20T17:05:32.000Z,34.78
2022-09-20T17:07:56.000Z,35.43
2022-09-20T17:10:23.000Z,33.17
2022-09-20T17:12:48.000Z,32.42
2022-09-20T17:15:14.000Z,31.7
2022-09-20T17:17:40.000Z,32.83
2022-09-20T17:20:11.000Z,32.37
2022-09-20T17:22:34.000Z,32.3
2022-09-20T17:24:59.000Z,32.8
2022-09-20T17:27:25.000Z,31.45
2022-09-20T17:29:58.000Z,30.88
2022-09-20T17:32:16.000Z,31.82
2022-09-20T17:34:44.000Z,30.52
2022-09-20T17:37:08.000Z,30.55
2022-09-20T17:39:34.000Z,31.07
2022-09-20T17:42:01.000Z,31.07
2022-09-20T17:44:31.000Z,31.97
2022-09-20T17:47:04.000Z,31.48
2022-09-20T17:49:18.000Z,31.73
2022-09-20T17:51:44.000Z,31.4
2022-09-20T17:54:12.000Z,31.5
2022-09-20T17:56:35.000Z,33.13
2022-09-20T17:59:01.000Z,32.83
2022-09-20T18:03:53.000Z,32.6
2022-09-20T18:06:19.000Z,32.6
2022-09-20T18:08:45.000Z,32.1
2022-09-20T18:11:13.000Z,31.68
2022-09-20T18:13:37.000Z,30.88
2022-09-20T18:16:06.000Z,30.55
2022-09-20T18:18:29.000Z,30.92
2022-09-20T18:20:54.000Z,30.8
2022-09-20T18:23:22.000Z,30.52
2022-09-20T18:25:48.000Z,30.37
2022-09-20T18:28:13.000Z,30.45
2022-09-20T18:30:38.000Z,29.65
2022-09-20T18:33:05.000Z,28.42
2022-09-20T18:35:31.000Z,29.07
2022-09-20T18:37:56.000Z,28.73
2022-09-20T18:40:21.000Z,28.33
2022-09-20T18:42:48.000Z,28.55
2022-09-20T18:45:16.000Z,27.35
2022-09-20T18:47:40.000Z,26.52
2022-09-20T18:50:06.000Z,26.27
2022-09-20T18:52:32.000Z,25.17
2022-09-20T18:54:57.000Z,24.9
2022-09-20T18:57:26.000Z,25.32
2022-09-20T18:59:49.000Z,24
2022-09-20T19:02:16.000Z,24.2
2022-09-20T19:04:41.000Z,22.6
2022-09-20T19:07:07.000Z,23.4
2022-09-20T19:09:33.000Z,22.27
2022-09-20T19:11:59.000Z,22.32
2022-09-20T19:14:25.000Z,21.5
2022-09-20T19:16:52.000Z,21.68
2022-09-20T19:19:18.000Z,21.77
2022-09-20T19:21:43.000Z,21.67
2022-09-20T19:24:10.000Z,20.72
2022-09-20T19:26:35.000Z,21.55
2022-09-20T19:29:02.000Z,21.45
2022-09-20T19:31:27.000Z,21.2
2022-09-20T19:33:59.000Z,21.37
2022-09-20T19:36:19.000Z,20.7
2022-09-20T19:38:45.000Z,19.5
2022-09-20T19:41:12.000Z,19.48
2022-09-20T19:43:41.000Z,19.35
2022-09-20T19:46:04.000Z,19.57
2022-09-20T19:48:28.000Z,18.87
2022-09-20T19:50:55.000Z,19.3
2022-09-20T19:53:20.000Z,18.6
2022-09-20T19:55:47.000Z,18.1
2022-09-20T19:58:14.000Z,18.17
2022-09-20T20:00:39.000Z,16.93
2022-09-20T20:03:06.000Z,16.95
2022-09-20T20:05:31.000Z,17.33
2022-09-20T20:07:57.000Z,16.45
2022-09-20T20:10:23.000Z,16.05
2022-09-20T20:12:50.000Z,15.85
2022-09-20T20:15:15.000Z,15.5
2022-09-20T20:17:41.000Z,15.4
2022-09-20T20:20:10.000Z,15.38
2022-09-20T20:22:34.000Z,15.67
2022-09-20T20:24:59.000Z,15.6
2022-09-20T20:27:26.000Z,15.45
2022-09-20T20:29:50.000Z,15.08
2022-09-20T20:32:16.000Z,15.23
2022-09-20T20:34:42.000Z,15.03
2022-09-20T20:37:07.000Z,15.27
2022-09-20T20:39:35.000Z,16
2022-09-20T20:41:59.000Z,15.15
2022-09-20T20:44:25.000Z,15.9
2022-09-20T20:46:52.000Z,15.05
2022-09-20T20:49:18.000Z,14.57
2022-09-20T20:51:44.000Z,15.4
2022-09-20T20:54:10.000Z,14.85
2022-09-20T20:56:34.000Z,15.25
2022-09-20T20:59:00.000Z,14.85
2022-09-20T21:01:28.000Z,14.8
2022-09-20T21:03:53.000Z,14.9
2022-09-20T21:06:19.000Z,14.43
2022-09-20T21:08:44.000Z,14.5
2022-09-20T21:11:10.000Z,14.43
2022-09-20T21:13:36.000Z,14.8
2022-09-20T21:16:04.000Z,14.97
2022-09-20T21:18:28.000Z,15.58
2022-09-20T21:20:55.000Z,14.73
2022-09-20T21:23:20.000Z,15.2
2022-09-20T21:25:46.000Z,15.2
2022-09-20T21:28:12.000Z,15.4
2022-09-20T21:30:40.000Z,16.32
2022-09-20T21:33:04.000Z,16.27
2022-09-20T21:35:31.000Z,17.6
2022-09-20T21:37:56.000Z,17.05
2022-09-20T21:40:25.000Z,16.9
2022-09-20T21:42:48.000Z,16.03
2022-09-20T21:45:16.000Z,16.5
2022-09-20T21:47:40.000Z,15.3
2022-09-20T21:50:08.000Z,15.4
2022-09-20T21:52:32.000Z,15.07
2022-09-20T21:54:57.000Z,15.43
2022-09-20T21:57:23.000Z,14.8
2022-09-20T21:59:49.000Z,15.53
2022-09-20T22:02:15.000Z,14.4
2022-09-20T22:04:41.000Z,14.8
2022-09-20T22:07:06.000Z,14.6
2022-09-20T22:09:34.000Z,14.9
2022-09-20T22:11:58.000Z,14.65
2022-09-20T22:14:36.000Z,15.45
2022-09-20T22:17:29.000Z,16.15
2022-09-20T22:19:17.000Z,16.17
2022-09-20T22:21:43.000Z,16
2022-09-20T22:24:08.000Z,15.38
2022-09-20T22:26:34.000Z,15.9
2022-09-20T22:29:00.000Z,15.28
2022-09-20T22:31:27.000Z,14.6
2022-09-20T22:33:51.000Z,14.53
2022-09-20T22:36:17.000Z,14.2
2022-09-20T22:38:45.000Z,14.78
2022-09-20T22:41:10.000Z,14.1
2022-09-20T22:43:35.000Z,14.65
2022-09-20T22:46:01.000Z,14.47
2022-09-20T22:48:27.000Z,15.08
2022-09-20T22:50:54.000Z,14.1
2022-09-20T22:53:21.000Z,14.37
2022-09-20T22:55:46.000Z,13.78
2022-09-20T22:58:12.000Z,15.13
2022-09-20T23:00:57.000Z,15.6
2022-09-20T23:03:03.000Z,15.6
2022-09-20T23:05:30.000Z,15.5
2022-09-20T23:07:56.000Z,15.25
2022-09-20T23:10:23.000Z,14.35
2022-09-20T23:12:48.000Z,14.85
2022-09-20T23:15:14.000Z,15.7
2022-09-20T23:17:40.000Z,18.25
2022-09-20T23:20:08.000Z,18.67
2022-09-20T23:22:33.000Z,19.25
2022-09-20T23:24:58.000Z,19.1
2022-09-20T23:27:24.000Z,19.33
2022-09-20T23:29:51.000Z,19.73
2022-09-20T23:32:16.000Z,20.67
2022-09-20T23:34:42.000Z,21.13
2022-09-20T23:37:08.000Z,21.25
2022-09-20T23:39:34.000Z,21.05
2022-09-20T23:41:59.000Z,21.77
2022-09-20T23:44:26.000Z,22.87
2022-09-20T23:46:52.000Z,21.73
2022-09-20T23:49:18.000Z,21.42
2022-09-20T23:51:43.000Z,21.7
2022-09-20T23:54:09.000Z,22.03
2022-09-20T23:56:35.000Z,21.65
2022-09-20T23:59:00.000Z,22.35
